Flight Track Log - Related Links

Times and Time Zones

All times are in EDT time to prevent confusion due to time zone crossing. See the UAL4693 flight status page for this flight to view local times or setup timezone preferences in your user account.

Time Position Orientation Groundspeed Altitude Reporting Facility
EDT Latitude Longitude Course Direction KTS MPH feet Rate Location/Type
Tue 06:56:14 AM 41.4397 -90.5997 90° East 179 206 3,600  Level Chicago Center
Tue 06:57:15 AM 41.3914 -90.6292 205° Southwest 233 268 6,400 2,231 Climbing Chicago Center
Tue 06:58:15 AM 41.3825 -90.5389 97° East 269 310 8,100 1,934 Climbing Chicago Center
Tue 06:59:16 AM 41.3942 -90.4242 82° East 306 352 10,300 1,918 Climbing Chicago Center
Tue 07:00:00 AM 41.4333 -90.0372 90° East  Level FlightAware Approximate
Tue 07:00:17 AM 41.3964 -90.3031 89° East 322 371 12,000  Level Chicago Center
Tue 07:01:00 AM 41.4334 -89.9286 90° East  Level FlightAware Approximate
Tue 07:01:18 AM 41.4058 -90.1403 86° East 357 411 13,800  Level Chicago Center
Tue 07:02:18 AM 41.4119 -89.9936 87° East 384 442 15,000 545 Climbing Chicago Center
Tue 07:03:19 AM 41.4197 -89.8347 86° East 415 478 14,900 -49 Descending Chicago Center
Tue 07:04:20 AM 41.4275 -89.6744 86° East 428 493 14,900 -344 Level Chicago Center
Tue 07:05:21 AM 41.4356 -89.5183 86° East 424 488 14,200 -1,041 Descending Chicago Center
Tue 07:06:21 AM 41.4508 -89.3681 82° East 412 474 12,800 -1,339 Descending Chicago Center
Tue 07:07:22 AM 41.4647 -89.2253 83° East 393 452 11,500 -885 Descending Chicago Center
Tue 07:08:23 AM 41.4778 -89.0789 83° East 390 449 11,000 -246 Descending Chicago Center
Tue 07:09:24 AM 41.4911 -88.9386 83° East 386 444 11,000  Level Chicago Center
Tue 07:10:25 AM 41.5033 -88.7950 83° East 390 449 11,000  Level Chicago Center
Tue 07:11:26 AM 41.5322 -88.6547 75° East 397 457 11,000  Level Chicago Center
Tue 07:12:27 AM 41.5842 -88.5264 62° Northeast 393 452 11,000 -197 Level Chicago Center
Tue 07:13:28 AM 41.6417 -88.4072 57° Northeast 386 444 10,600 -689 Descending Chicago Center
Tue 07:14:29 AM 41.6983 -88.3119 51° Northeast 341 392 9,600 -787 Descending Chicago Center
Tue 07:15:30 AM 41.7486 -88.2267 52° Northeast 306 352 9,000 -344 Descending Chicago Center
Tue 07:16:31 AM 41.7981 -88.1544 47° Northeast 281 323 8,900 -689 Descending Chicago Center
Tue 07:17:32 AM 41.8675 -88.1436 North 255 293 7,600 -934 Descending Chicago Center
Tue 07:18:33 AM 41.9486 -88.1350 North 248 285 7,000 -295 Descending Chicago Center
Tue 07:19:34 AM 42.0139 -88.1272 North 240 276 7,000 -492 Level Chicago Center
Tue 07:20:35 AM 42.0672 -88.1714 328° Northwest 231 266 6,000 -1,082 Descending Chicago Center
Tue 07:21:36 AM 42.1161 -88.2183 325° Northwest 221 254 4,800 -984 Descending Chicago Center
Tue 07:22:37 AM 42.1658 -88.1756 33° Northeast 239 275 4,000 -393 Descending Chicago Center
Tue 07:23:38 AM 42.1450 -88.1078 112° Southeast 223 257 4,000 -584 Level Chicago Center
Tue 07:24:30 AM 42.1000 -88.0667 146° Southeast 196 226 2,900 -1,269 Descending Chicago TRACON

Login

Don't have an account? Register now (free) for customized features, flight alerts, and more!